Portland, Oregon
Traffic Map
Current Weather Conditions
Portland, Oregon
Few Clouds
Few Clouds
52°
Feels Like: 52°
Wind Chill: 52° Ceiling: Unl
Heat Index: 52° Visibility: 10mi
Dew Point: 46° Wind: 0mph
Humidity: 80% Direction: ° ()
Pressure: 30.32in Gusts: 0mph
Raw Report DataKPDX 181553Z 00000KT 10SM FEW025 11/08 A3032 RMK AO2 SLP267 T01110078
Traffic Incident Summary
Active as of:
Severity:
Category:
InformationThere was an issue retrieving the traffic information for this location. Please try a different location or try again shortly.
Advertisements
Track Severe Weather on mobile